sensor_id;sensor_type;location;lat;lon;timestamp;pressure;altitude;pressure_sealevel;temperature;humidity
45793;BME280;31495;42.740;22.908;2022-09-09T00:03:33;93349.00;;;15.44;80.06
45793;BME280;31495;42.740;22.908;2022-09-09T00:04:37;93366.41;;;15.56;79.83
45793;BME280;31495;42.740;22.908;2022-09-09T00:06:08;93354.09;;;15.51;80.19
45793;BME280;31495;42.740;22.908;2022-09-09T00:07:21;93363.09;;;15.60;79.99
45793;BME280;31495;42.740;22.908;2022-09-09T00:08:31;93348.88;;;15.51;79.88
45793;BME280;31495;42.740;22.908;2022-09-09T00:09:40;93346.72;;;15.48;79.84
45793;BME280;31495;42.740;22.908;2022-09-09T00:10:45;93327.66;;;15.48;79.46
45793;BME280;31495;42.740;22.908;2022-09-09T00:11:55;93352.13;;;15.58;79.38
45793;BME280;31495;42.740;22.908;2022-09-09T00:13:22;93357.78;;;15.55;79.46
45793;BME280;31495;42.740;22.908;2022-09-09T00:15:57;93356.13;;;15.49;79.20
45793;BME280;31495;42.740;22.908;2022-09-09T00:17:04;93348.69;;;15.41;79.49
45793;BME280;31495;42.740;22.908;2022-09-09T00:18:17;93327.31;;;15.27;79.79
45793;BME280;31495;42.740;22.908;2022-09-09T00:20:13;93349.38;;;15.36;79.79
45793;BME280;31495;42.740;22.908;2022-09-09T00:21:14;93347.56;;;15.37;79.38
45793;BME280;31495;42.740;22.908;2022-09-09T00:22:19;93314.59;;;15.14;79.43
45793;BME280;31495;42.740;22.908;2022-09-09T00:23:30;93333.78;;;15.24;79.26
45793;BME280;31495;42.740;22.908;2022-09-09T00:24:43;93329.03;;;15.21;78.87
45793;BME280;31495;42.740;22.908;2022-09-09T00:26:14;93333.78;;;15.24;78.88
45793;BME280;31495;42.740;22.908;2022-09-09T00:27:37;93334.78;;;15.35;78.11
45793;BME280;31495;42.740;22.908;2022-09-09T00:31:13;93335.38;;;15.25;78.88
45793;BME280;31495;42.740;22.908;2022-09-09T00:32:16;93352.94;;;15.30;79.15
45793;BME280;31495;42.740;22.908;2022-09-09T00:33:20;93334.38;;;15.15;79.53
45793;BME280;31495;42.740;22.908;2022-09-09T00:34:23;93343.56;;;15.17;79.52
45793;BME280;31495;42.740;22.908;2022-09-09T00:35:28;93350.25;;;15.25;79.43
45793;BME280;31495;42.740;22.908;2022-09-09T00:36:31;93353.53;;;15.20;79.41
45793;BME280;31495;42.740;22.908;2022-09-09T00:37:32;93346.63;;;15.14;79.77
45793;BME280;31495;42.740;22.908;2022-09-09T00:38:38;93340.88;;;15.12;79.80
45793;BME280;31495;42.740;22.908;2022-09-09T00:39:41;93343.94;;;15.09;80.01
45793;BME280;31495;42.740;22.908;2022-09-09T00:42:41;93327.59;;;14.85;80.66
45793;BME280;31495;42.740;22.908;2022-09-09T00:43:41;93333.13;;;14.88;80.74
45793;BME280;31495;42.740;22.908;2022-09-09T00:45:02;93314.91;;;14.77;81.12
45793;BME280;31495;42.740;22.908;2022-09-09T00:46:14;93353.81;;;15.07;81.31
45793;BME280;31495;42.740;22.908;2022-09-09T00:47:50;93351.63;;;15.16;80.79
45793;BME280;31495;42.740;22.908;2022-09-09T00:51:54;93334.66;;;15.01;80.59
45793;BME280;31495;42.740;22.908;2022-09-09T00:56:50;93316.97;;;14.75;81.42
45793;BME280;31495;42.740;22.908;2022-09-09T00:57:53;93337.53;;;14.88;80.98
45793;BME280;31495;42.740;22.908;2022-09-09T00:59:24;93332.25;;;14.83;80.98
45793;BME280;31495;42.740;22.908;2022-09-09T01:00:37;93327.63;;;14.73;81.36
45793;BME280;31495;42.740;22.908;2022-09-09T01:01:39;93341.19;;;14.75;81.84
45793;BME280;31495;42.740;22.908;2022-09-09T01:04:44;93339.97;;;14.78;81.78
45793;BME280;31495;42.740;22.908;2022-09-09T01:06:00;93334.41;;;14.74;81.58
45793;BME280;31495;42.740;22.908;2022-09-09T01:07:17;93351.03;;;14.85;81.50
45793;BME280;31495;42.740;22.908;2022-09-09T01:09:57;93337.81;;;14.75;80.98
45793;BME280;31495;42.740;22.908;2022-09-09T01:10:58;93328.16;;;14.75;80.48
45793;BME280;31495;42.740;22.908;2022-09-09T01:12:23;93345.13;;;14.89;80.64
45793;BME280;31495;42.740;22.908;2022-09-09T01:13:29;93339.59;;;14.86;81.06
45793;BME280;31495;42.740;22.908;2022-09-09T01:15:35;93335.53;;;14.78;81.61
45793;BME280;31495;42.740;22.908;2022-09-09T01:16:38;93312.81;;;14.62;81.46
45793;BME280;31495;42.740;22.908;2022-09-09T01:18:46;93340.59;;;14.85;81.38
45793;BME280;31495;42.740;22.908;2022-09-09T01:20:18;93340.25;;;14.93;81.19
45793;BME280;31495;42.740;22.908;2022-09-09T01:23:02;93329.63;;;14.83;80.39
45793;BME280;31495;42.740;22.908;2022-09-09T01:26:37;93352.94;;;14.89;80.57
45793;BME280;31495;42.740;22.908;2022-09-09T01:27:06;93327.63;;;14.73;80.44
45793;BME280;31495;42.740;22.908;2022-09-09T01:28:10;93342.22;;;14.74;80.13
45793;BME280;31495;42.740;22.908;2022-09-09T01:29:15;93310.84;;;14.57;80.06
45793;BME280;31495;42.740;22.908;2022-09-09T01:30:17;93340.09;;;14.71;79.76
45793;BME280;31495;42.740;22.908;2022-09-09T01:31:24;93356.25;;;14.85;79.76
45793;BME280;31495;42.740;22.908;2022-09-09T01:33:37;93324.91;;;14.68;79.21
45793;BME280;31495;42.740;22.908;2022-09-09T01:34:38;93348.56;;;14.78;79.55
45793;BME280;31495;42.740;22.908;2022-09-09T01:35:44;93345.06;;;14.73;80.12
45793;BME280;31495;42.740;22.908;2022-09-09T01:36:58;93345.06;;;14.73;80.27
45793;BME280;31495;42.740;22.908;2022-09-09T01:37:58;93308.06;;;14.47;80.44
45793;BME280;31495;42.740;22.908;2022-09-09T01:38:57;93280.13;;;14.30;80.32
45793;BME280;31495;42.740;22.908;2022-09-09T01:39:57;93313.13;;;14.53;80.46
45793;BME280;31495;42.740;22.908;2022-09-09T01:40:56;93325.16;;;14.66;80.66
45793;BME280;31495;42.740;22.908;2022-09-09T01:41:58;93320.94;;;14.65;80.33
45793;BME280;31495;42.740;22.908;2022-09-09T01:42:57;93340.63;;;14.73;80.29
45793;BME280;31495;42.740;22.908;2022-09-09T01:43:57;93313.22;;;14.59;79.78
45793;BME280;31495;42.740;22.908;2022-09-09T01:44:56;93297.31;;;14.43;79.95
45793;BME280;31495;42.740;22.908;2022-09-09T01:45:59;93348.56;;;14.78;80.02
45793;BME280;31495;42.740;22.908;2022-09-09T01:46:59;93324.09;;;14.67;79.48
45793;BME280;31495;42.740;22.908;2022-09-09T01:47:59;93327.75;;;14.66;80.17
45793;BME280;31495;42.740;22.908;2022-09-09T01:49:00;93348.56;;;14.78;79.81
45793;BME280;31495;42.740;22.908;2022-09-09T01:50:02;93323.09;;;14.57;80.05
45793;BME280;31495;42.740;22.908;2022-09-09T01:51:02;93325.03;;;14.49;80.48
45793;BME280;31495;42.740;22.908;2022-09-09T01:52:01;93332.03;;;14.49;80.56
45793;BME280;31495;42.740;22.908;2022-09-09T01:53:01;93321.28;;;14.45;80.61
45793;BME280;31495;42.740;22.908;2022-09-09T01:54:02;93349.50;;;14.60;80.46
45793;BME280;31495;42.740;22.908;2022-09-09T01:55:03;93322.53;;;14.43;80.16
45793;BME280;31495;42.740;22.908;2022-09-09T01:57:31;93318.38;;;14.42;80.38
45793;BME280;31495;42.740;22.908;2022-09-09T02:00:13;93334.19;;;14.52;80.86
45793;BME280;31495;42.740;22.908;2022-09-09T02:01:35;93350.28;;;14.61;81.08
45793;BME280;31495;42.740;22.908;2022-09-09T02:03:00;93342.81;;;14.64;81.32
45793;BME280;31495;42.740;22.908;2022-09-09T02:04:20;93327.38;;;14.51;81.36
45793;BME280;31495;42.740;22.908;2022-09-09T02:05:38;93332.13;;;14.54;81.26
45793;BME280;31495;42.740;22.908;2022-09-09T02:06:39;93351.50;;;14.70;81.11
45793;BME280;31495;42.740;22.908;2022-09-09T02:07:47;93316.88;;;14.46;81.03
45793;BME280;31495;42.740;22.908;2022-09-09T02:08:50;93288.84;;;14.24;81.06
45793;BME280;31495;42.740;22.908;2022-09-09T02:09:58;93336.00;;;14.63;80.95
45793;BME280;31495;42.740;22.908;2022-09-09T02:11:15;93333.88;;;14.60;80.45
45793;BME280;31495;42.740;22.908;2022-09-09T02:12:18;93333.09;;;14.60;80.18
45793;BME280;31495;42.740;22.908;2022-09-09T02:13:21;93350.28;;;14.73;80.02
45793;BME280;31495;42.740;22.908;2022-09-09T02:14:25;93331.81;;;14.62;80.15
45793;BME280;31495;42.740;22.908;2022-09-09T02:15:33;93326.72;;;14.56;80.39
45793;BME280;31495;42.740;22.908;2022-09-09T02:17:38;93354.78;;;14.77;80.28
45793;BME280;31495;42.740;22.908;2022-09-09T02:20:03;93336.25;;;14.62;80.45
45793;BME280;31495;42.740;22.908;2022-09-09T02:21:05;93357.28;;;14.72;80.62
45793;BME280;31495;42.740;22.908;2022-09-09T02:22:05;93343.94;;;14.68;80.69
45793;BME280;31495;42.740;22.908;2022-09-09T02:23:07;93328.75;;;14.53;80.58
45793;BME280;31495;42.740;22.908;2022-09-09T02:24:08;93349.38;;;14.67;80.40
45793;BME280;31495;42.740;22.908;2022-09-09T02:25:11;93330.91;;;14.57;80.39
45793;BME280;31495;42.740;22.908;2022-09-09T02:26:13;93336.91;;;14.57;80.08
45793;BME280;31495;42.740;22.908;2022-09-09T02:27:20;93340.66;;;14.49;80.47
45793;BME280;31495;42.740;22.908;2022-09-09T02:28:21;93341.91;;;14.47;80.28
45793;BME280;31495;42.740;22.908;2022-09-09T02:29:33;93344.84;;;14.50;80.18
45793;BME280;31495;42.740;22.908;2022-09-09T02:30:34;93336.91;;;14.45;79.69
45793;BME280;31495;42.740;22.908;2022-09-09T02:31:36;93360.78;;;14.54;79.60
45793;BME280;31495;42.740;22.908;2022-09-09T02:32:38;93352.19;;;14.53;79.18
45793;BME280;31495;42.740;22.908;2022-09-09T02:33:44;93359.91;;;14.60;79.04
45793;BME280;31495;42.740;22.908;2022-09-09T02:34:47;93364.53;;;14.58;79.29
45793;BME280;31495;42.740;22.908;2022-09-09T02:35:48;93353.41;;;14.51;79.42
45793;BME280;31495;42.740;22.908;2022-09-09T02:36:50;93354.91;;;14.47;79.61
45793;BME280;31495;42.740;22.908;2022-09-09T02:37:55;93358.19;;;14.42;80.11
45793;BME280;31495;42.740;22.908;2022-09-09T02:38:56;93345.72;;;14.44;80.35
45793;BME280;31495;42.740;22.908;2022-09-09T02:39:55;93333.50;;;14.33;80.53
45793;BME280;31495;42.740;22.908;2022-09-09T02:40:54;93321.44;;;14.27;80.48
45793;BME280;31495;42.740;22.908;2022-09-09T02:41:54;93358.63;;;14.51;80.58
45793;BME280;31495;42.740;22.908;2022-09-09T02:42:54;93338.28;;;14.36;80.30
45793;BME280;31495;42.740;22.908;2022-09-09T02:43:54;93348.78;;;14.41;80.46
45793;BME280;31495;42.740;22.908;2022-09-09T02:44:53;93346.66;;;14.38;80.54
45793;BME280;31495;42.740;22.908;2022-09-09T02:48:18;93327.53;;;14.32;80.30
45793;BME280;31495;42.740;22.908;2022-09-09T02:52:07;93355.56;;;14.54;80.55
45793;BME280;31495;42.740;22.908;2022-09-09T02:53:16;93350.38;;;14.54;80.81
45793;BME280;31495;42.740;22.908;2022-09-09T02:55:37;93358.88;;;14.49;80.89
45793;BME280;31495;42.740;22.908;2022-09-09T02:56:41;93339.84;;;14.49;80.30
45793;BME280;31495;42.740;22.908;2022-09-09T02:57:45;93354.91;;;14.59;80.46
45793;BME280;31495;42.740;22.908;2022-09-09T02:58:47;93356.72;;;14.58;80.46
45793;BME280;31495;42.740;22.908;2022-09-09T02:59:48;93335.00;;;14.41;80.24
45793;BME280;31495;42.740;22.908;2022-09-09T03:00:50;93322.75;;;14.41;80.25
45793;BME280;31495;42.740;22.908;2022-09-09T03:01:49;93324.34;;;14.42;80.26
45793;BME280;31495;42.740;22.908;2022-09-09T03:02:49;93335.78;;;14.53;80.00
45793;BME280;31495;42.740;22.908;2022-09-09T03:03:48;93329.22;;;14.50;79.99
45793;BME280;31495;42.740;22.908;2022-09-09T03:04:48;93323.00;;;14.51;79.97
45793;BME280;31495;42.740;22.908;2022-09-09T03:05:51;93318.00;;;14.50;80.06
45793;BME280;31495;42.740;22.908;2022-09-09T03:06:50;93303.66;;;14.36;80.26
45793;BME280;31495;42.740;22.908;2022-09-09T03:07:49;93323.00;;;14.51;80.18
45793;BME280;31495;42.740;22.908;2022-09-09T03:08:49;93312.72;;;14.45;80.15
45793;BME280;31495;42.740;22.908;2022-09-09T03:09:49;93309.75;;;14.41;80.18
45793;BME280;31495;42.740;22.908;2022-09-09T03:10:48;93323.91;;;14.45;80.16
45793;BME280;31495;42.740;22.908;2022-09-09T03:11:48;93304.00;;;14.27;79.90
45793;BME280;31495;42.740;22.908;2022-09-09T03:12:48;93303.34;;;14.20;79.73
45793;BME280;31495;42.740;22.908;2022-09-09T03:13:48;93320.16;;;14.29;79.47
45793;BME280;31495;42.740;22.908;2022-09-09T03:14:48;93338.97;;;14.43;78.94
45793;BME280;31495;42.740;22.908;2022-09-09T03:15:48;93327.63;;;14.38;78.74
45793;BME280;31495;42.740;22.908;2022-09-09T03:16:48;93316.34;;;14.32;78.86
45793;BME280;31495;42.740;22.908;2022-09-09T03:17:47;93340.75;;;14.43;78.95
45793;BME280;31495;42.740;22.908;2022-09-09T03:18:47;93317.25;;;14.26;79.19
45793;BME280;31495;42.740;22.908;2022-09-09T03:19:47;93317.69;;;14.23;79.71
45793;BME280;31495;42.740;22.908;2022-09-09T03:20:48;93314.88;;;14.24;79.86
45793;BME280;31495;42.740;22.908;2022-09-09T03:21:48;93316.34;;;14.20;79.78
45793;BME280;31495;42.740;22.908;2022-09-09T03:22:48;93313.28;;;14.23;80.08
45793;BME280;31495;42.740;22.908;2022-09-09T03:23:49;93318.94;;;14.32;80.21
45793;BME280;31495;42.740;22.908;2022-09-09T03:24:48;93284.00;;;14.04;80.20
45793;BME280;31495;42.740;22.908;2022-09-09T03:25:51;93305.84;;;14.15;80.41
45793;BME280;31495;42.740;22.908;2022-09-09T03:26:51;93340.22;;;14.29;80.95
45793;BME280;31495;42.740;22.908;2022-09-09T03:27:52;93340.53;;;14.32;81.03
45793;BME280;31495;42.740;22.908;2022-09-09T03:28:54;93331.28;;;14.13;81.53
45793;BME280;31495;42.740;22.908;2022-09-09T03:29:53;93334.78;;;14.19;81.29
45793;BME280;31495;42.740;22.908;2022-09-09T03:30:58;93346.88;;;14.25;81.24
45793;BME280;31495;42.740;22.908;2022-09-09T03:31:58;93334.19;;;14.16;81.13
45793;BME280;31495;42.740;22.908;2022-09-09T03:32:58;93338.19;;;14.19;81.30
45793;BME280;31495;42.740;22.908;2022-09-09T03:33:58;93349.03;;;14.28;81.19
45793;BME280;31495;42.740;22.908;2022-09-09T03:34:57;93328.56;;;14.20;81.13
45793;BME280;31495;42.740;22.908;2022-09-09T03:35:57;93342.94;;;14.22;81.55
45793;BME280;31495;42.740;22.908;2022-09-09T03:36:57;93325.84;;;14.14;81.15
45793;BME280;31495;42.740;22.908;2022-09-09T03:37:56;93330.38;;;14.19;80.77
45793;BME280;31495;42.740;22.908;2022-09-09T03:38:56;93336.47;;;14.25;80.63
45793;BME280;31495;42.740;22.908;2022-09-09T03:39:55;93342.47;;;14.25;80.75
45793;BME280;31495;42.740;22.908;2022-09-09T03:40:56;93341.56;;;14.20;80.69
45793;BME280;31495;42.740;22.908;2022-09-09T03:41:56;93352.00;;;14.31;80.73
45793;BME280;31495;42.740;22.908;2022-09-09T03:42:56;93341.91;;;14.23;80.20
45793;BME280;31495;42.740;22.908;2022-09-09T03:43:55;93361.38;;;14.32;80.17
45793;BME280;31495;42.740;22.908;2022-09-09T03:44:54;93338.41;;;14.18;80.00
45793;BME280;31495;42.740;22.908;2022-09-09T03:45:56;93338.28;;;14.12;79.84
45793;BME280;31495;42.740;22.908;2022-09-09T03:46:56;93332.75;;;14.09;80.19
45793;BME280;31495;42.740;22.908;2022-09-09T03:47:56;93339.41;;;14.16;79.87
45793;BME280;31495;42.740;22.908;2022-09-09T03:48:56;93361.25;;;14.27;79.64
45793;BME280;31495;42.740;22.908;2022-09-09T03:49:56;93341.00;;;14.18;79.70
45793;BME280;31495;42.740;22.908;2022-09-09T03:50:56;93323.13;;;14.09;79.84
45793;BME280;31495;42.740;22.908;2022-09-09T03:51:57;93359.00;;;14.31;79.71
45793;BME280;31495;42.740;22.908;2022-09-09T03:52:58;93335.81;;;14.18;79.91
45793;BME280;31495;42.740;22.908;2022-09-09T03:53:57;93339.06;;;14.25;80.23
45793;BME280;31495;42.740;22.908;2022-09-09T03:54:57;93356.84;;;14.40;80.23
45793;BME280;31495;42.740;22.908;2022-09-09T03:55:57;93346.19;;;14.41;80.42
45793;BME280;31495;42.740;22.908;2022-09-09T03:56:59;93321.44;;;14.27;80.50
45793;BME280;31495;42.740;22.908;2022-09-09T03:57:58;93316.34;;;14.32;80.18
45793;BME280;31495;42.740;22.908;2022-09-09T03:58:59;93335.13;;;14.34;80.27
45793;BME280;31495;42.740;22.908;2022-09-09T03:59:59;93329.81;;;14.29;80.56
45793;BME280;31495;42.740;22.908;2022-09-09T04:01:03;93348.00;;;14.41;80.90
45793;BME280;31495;42.740;22.908;2022-09-09T04:02:03;93331.16;;;14.31;80.43
45793;BME280;31495;42.740;22.908;2022-09-09T04:03:02;93348.00;;;14.41;80.44
45793;BME280;31495;42.740;22.908;2022-09-09T04:04:02;93318.59;;;14.28;80.28
45793;BME280;31495;42.740;22.908;2022-09-09T04:05:01;93334.09;;;14.35;79.96
45793;BME280;31495;42.740;22.908;2022-09-09T04:06:03;93354.59;;;14.43;80.31
45793;BME280;31495;42.740;22.908;2022-09-09T04:07:03;93346.66;;;14.38;80.61
45793;BME280;31495;42.740;22.908;2022-09-09T04:08:06;93351.75;;;14.33;81.01
45793;BME280;31495;42.740;22.908;2022-09-09T04:09:06;93350.63;;;14.29;81.45
45793;BME280;31495;42.740;22.908;2022-09-09T04:10:06;93336.25;;;14.14;81.51
45793;BME280;31495;42.740;22.908;2022-09-09T04:11:06;93355.81;;;14.29;81.71
45793;BME280;31495;42.740;22.908;2022-09-09T04:12:06;93322.91;;;14.11;81.81
45793;BME280;31495;42.740;22.908;2022-09-09T04:13:06;93350.72;;;14.34;81.40
45793;BME280;31495;42.740;22.908;2022-09-09T04:14:05;93336.47;;;14.25;81.39
45793;BME280;31495;42.740;22.908;2022-09-09T04:15:05;93366.00;;;14.42;81.15
45793;BME280;31495;42.740;22.908;2022-09-09T04:16:05;93332.41;;;14.29;81.25
45793;BME280;31495;42.740;22.908;2022-09-09T04:17:05;93320.06;;;14.24;81.28
45793;BME280;31495;42.740;22.908;2022-09-09T04:18:05;93317.25;;;14.26;81.04
45793;BME280;31495;42.740;22.908;2022-09-09T04:19:05;93340.19;;;14.41;81.19
45793;BME280;31495;42.740;22.908;2022-09-09T04:20:07;93331.59;;;14.40;81.18
45793;BME280;31495;42.740;22.908;2022-09-09T04:21:10;93363.16;;;14.56;81.35
45793;BME280;31495;42.740;22.908;2022-09-09T04:22:11;93364.34;;;14.60;81.22
45793;BME280;31495;42.740;22.908;2022-09-09T04:23:10;93347.75;;;14.54;81.17
45793;BME280;31495;42.740;22.908;2022-09-09T04:24:10;93320.97;;;14.42;80.87
45793;BME280;31495;42.740;22.908;2022-09-09T04:25:10;93359.31;;;14.70;80.40
45793;BME280;31495;42.740;22.908;2022-09-09T04:26:09;93353.22;;;14.64;80.74
45793;BME280;31495;42.740;22.908;2022-09-09T04:27:09;93337.72;;;14.58;80.61
45793;BME280;31495;42.740;22.908;2022-09-09T04:28:08;93331.47;;;14.59;80.19
45793;BME280;31495;42.740;22.908;2022-09-09T04:29:08;93320.50;;;14.57;80.24
45793;BME280;31495;42.740;22.908;2022-09-09T04:30:07;93341.66;;;14.72;80.16
45793;BME280;31495;42.740;22.908;2022-09-09T04:31:12;93342.91;;;14.69;80.43
45793;BME280;31495;42.740;22.908;2022-09-09T04:32:13;93354.53;;;14.79;80.59
45793;BME280;31495;42.740;22.908;2022-09-09T04:33:13;93343.00;;;14.75;80.85
45793;BME280;31495;42.740;22.908;2022-09-09T04:34:13;93326.72;;;14.67;80.86
45793;BME280;31495;42.740;22.908;2022-09-09T04:35:13;93347.41;;;14.86;80.59
45793;BME280;31495;42.740;22.908;2022-09-09T04:36:13;93342.19;;;14.86;80.79
45793;BME280;31495;42.740;22.908;2022-09-09T04:37:13;93312.09;;;14.78;80.58
45793;BME280;31495;42.740;22.908;2022-09-09T04:38:14;93343.75;;;14.99;81.08
45793;BME280;31495;42.740;22.908;2022-09-09T04:39:13;93338.31;;;14.88;81.28
45793;BME280;31495;42.740;22.908;2022-09-09T04:40:14;93338.31;;;14.88;81.24
45793;BME280;31495;42.740;22.908;2022-09-09T04:41:15;93340.59;;;14.85;81.59
45793;BME280;31495;42.740;22.908;2022-09-09T04:42:15;93329.31;;;14.79;81.55
45793;BME280;31495;42.740;22.908;2022-09-09T04:43:17;93309.38;;;14.73;81.66
45793;BME280;31495;42.740;22.908;2022-09-09T04:44:17;93311.22;;;14.73;81.31
45793;BME280;31495;42.740;22.908;2022-09-09T04:45:16;93321.50;;;14.79;81.74
45793;BME280;31495;42.740;22.908;2022-09-09T04:46:17;93315.94;;;14.76;81.80
45793;BME280;31495;42.740;22.908;2022-09-09T04:47:17;93329.88;;;14.81;81.99
45793;BME280;31495;42.740;22.908;2022-09-09T04:48:17;93322.50;;;14.78;81.77
45793;BME280;31495;42.740;22.908;2022-09-09T04:49:16;93316.28;;;14.79;81.92
45793;BME280;31495;42.740;22.908;2022-09-09T04:50:17;93319.13;;;14.78;81.80
45793;BME280;31495;42.740;22.908;2022-09-09T04:51:17;93333.22;;;14.94;81.57
45793;BME280;31495;42.740;22.908;2022-09-09T04:52:16;93325.31;;;14.88;81.50
45793;BME280;31495;42.740;22.908;2022-09-09T04:53:16;93324.28;;;14.89;81.40
45793;BME280;31495;42.740;22.908;2022-09-09T04:54:15;93297.25;;;14.79;81.54
45793;BME280;31495;42.740;22.908;2022-09-09T04:55:15;93306.06;;;14.89;81.52
45793;BME280;31495;42.740;22.908;2022-09-09T04:56:16;93314.50;;;14.97;81.57
45793;BME280;31495;42.740;22.908;2022-09-09T04:57:16;93323.47;;;15.01;81.64
45793;BME280;31495;42.740;22.908;2022-09-09T04:58:15;93318.25;;;15.01;81.78
45793;BME280;31495;42.740;22.908;2022-09-09T04:59:14;93300.16;;;14.94;81.72
45793;BME280;31495;42.740;22.908;2022-09-09T05:00:14;93305.03;;;14.91;81.83
45793;BME280;31495;42.740;22.908;2022-09-09T05:01:19;93335.09;;;15.10;81.99
45793;BME280;31495;42.740;22.908;2022-09-09T05:02:20;93318.25;;;15.01;81.80
45793;BME280;31495;42.740;22.908;2022-09-09T05:03:19;93312.00;;;15.02;81.70
45793;BME280;31495;42.740;22.908;2022-09-09T05:04:19;93302.53;;;14.96;81.70
45793;BME280;31495;42.740;22.908;2022-09-09T05:05:18;93330.53;;;15.17;81.36
45793;BME280;31495;42.740;22.908;2022-09-09T05:06:20;93313.44;;;15.10;81.31
45793;BME280;31495;42.740;22.908;2022-09-09T05:07:20;93324.81;;;15.32;81.21
45793;BME280;31495;42.740;22.908;2022-09-09T05:08:20;93315.63;;;15.30;81.32
45793;BME280;31495;42.740;22.908;2022-09-09T05:09:20;93297.66;;;15.16;81.64
45793;BME280;31495;42.740;22.908;2022-09-09T05:10:19;93317.00;;;15.32;81.73
45793;BME280;31495;42.740;22.908;2022-09-09T05:11:24;93307.56;;;15.31;81.52
45793;BME280;31495;42.740;22.908;2022-09-09T05:12:24;93321.03;;;15.40;81.40
45793;BME280;31495;42.740;22.908;2022-09-09T05:13:25;93309.47;;;15.36;81.67
45793;BME280;31495;42.740;22.908;2022-09-09T05:14:25;93280.56;;;15.20;81.28
45793;BME280;31495;42.740;22.908;2022-09-09T05:15:26;93302.88;;;15.45;81.22
45793;BME280;31495;42.740;22.908;2022-09-09T05:16:25;93322.41;;;15.59;80.98
45793;BME280;31495;42.740;22.908;2022-09-09T05:17:25;93316.47;;;15.64;81.37
45793;BME280;31495;42.740;22.908;2022-09-09T05:18:25;93292.44;;;15.45;81.22
45793;BME280;31495;42.740;22.908;2022-09-09T05:19:24;93317.97;;;15.60;81.70
45793;BME280;31495;42.740;22.908;2022-09-09T05:20:24;93314.25;;;15.56;81.38
45793;BME280;31495;42.740;22.908;2022-09-09T05:21:24;93305.31;;;15.52;81.46
45793;BME280;31495;42.740;22.908;2022-09-09T05:22:27;93334.47;;;15.77;81.55
45793;BME280;31495;42.740;22.908;2022-09-09T05:23:27;93320.63;;;15.77;81.29
45793;BME280;31495;42.740;22.908;2022-09-09T05:24:27;93311.22;;;15.76;81.34
45793;BME280;31495;42.740;22.908;2022-09-09T05:25:26;93322.06;;;15.85;81.12
45793;BME280;31495;42.740;22.908;2022-09-09T05:26:26;93327.88;;;15.92;81.54
45793;BME280;31495;42.740;22.908;2022-09-09T05:27:26;93306.41;;;15.85;81.46
45793;BME280;31495;42.740;22.908;2022-09-09T05:28:26;93308.28;;;15.89;81.43
45793;BME280;31495;42.740;22.908;2022-09-09T05:29:26;93277.44;;;15.69;81.57
45793;BME280;31495;42.740;22.908;2022-09-09T05:30:25;93319.19;;;16.03;81.73
45793;BME280;31495;42.740;22.908;2022-09-09T05:31:25;93321.31;;;16.06;81.36
45793;BME280;31495;42.740;22.908;2022-09-09T05:32:27;93312.72;;;16.06;81.61
45793;BME280;31495;42.740;22.908;2022-09-09T05:33:27;93327.97;;;16.14;81.46
45793;BME280;31495;42.740;22.908;2022-09-09T05:34:26;93321.63;;;16.10;81.53
45793;BME280;31495;42.740;22.908;2022-09-09T05:35:26;93317.47;;;16.09;81.96
45793;BME280;31495;42.740;22.908;2022-09-09T05:36:26;93338.84;;;16.28;81.81
45793;BME280;31495;42.740;22.908;2022-09-09T05:37:25;93309.69;;;16.14;82.04
45793;BME280;31495;42.740;22.908;2022-09-09T05:38:25;93341.53;;;16.33;81.88
45793;BME280;31495;42.740;22.908;2022-09-09T05:39:24;93293.72;;;16.10;81.75
45793;BME280;31495;42.740;22.908;2022-09-09T05:40:24;93271.91;;;15.99;81.38
45793;BME280;31495;42.740;22.908;2022-09-09T05:41:23;93304.13;;;16.27;81.85
45793;BME280;31495;42.740;22.908;2022-09-09T05:42:23;93323.09;;;16.40;81.28
45793;BME280;31495;42.740;22.908;2022-09-09T05:43:24;93320.00;;;16.43;81.64
45793;BME280;31495;42.740;22.908;2022-09-09T05:44:23;93291.81;;;16.23;81.49
45793;BME280;31495;42.740;22.908;2022-09-09T05:45:26;93320.88;;;16.48;81.31
45793;BME280;31495;42.740;22.908;2022-09-09T05:46:26;93296.31;;;16.27;80.95
45793;BME280;31495;42.740;22.908;2022-09-09T05:47:26;93329.31;;;16.56;80.83
45793;BME280;31495;42.740;22.908;2022-09-09T05:48:46;93340.16;;;16.64;80.74
45793;BME280;31495;42.740;22.908;2022-09-09T05:49:46;93319.91;;;16.54;80.95
45793;BME280;31495;42.740;22.908;2022-09-09T05:50:52;93315.66;;;16.48;80.93
45793;BME280;31495;42.740;22.908;2022-09-09T05:51:52;93328.34;;;16.62;81.01
45793;BME280;31495;42.740;22.908;2022-09-09T05:52:54;93345.19;;;16.71;81.07
45793;BME280;31495;42.740;22.908;2022-09-09T05:53:54;93337.59;;;16.69;81.51
45793;BME280;31495;42.740;22.908;2022-09-09T05:54:59;93341.94;;;16.81;81.70
45793;BME280;31495;42.740;22.908;2022-09-09T05:56:10;93336.69;;;16.81;81.47
45793;BME280;31495;42.740;22.908;2022-09-09T05:57:10;93333.94;;;16.87;81.32
45793;BME280;31495;42.740;22.908;2022-09-09T05:58:10;93326.16;;;16.76;81.17
45793;BME280;31495;42.740;22.908;2022-09-09T05:59:10;93338.69;;;16.90;81.37
45793;BME280;31495;42.740;22.908;2022-09-09T06:00:11;93331.47;;;16.81;81.18
45793;BME280;31495;42.740;22.908;2022-09-09T06:01:17;93344.97;;;16.95;81.08
45793;BME280;31495;42.740;22.908;2022-09-09T06:02:17;93340.19;;;16.86;81.18
45793;BME280;31495;42.740;22.908;2022-09-09T06:03:16;93324.94;;;16.83;81.04
45793;BME280;31495;42.740;22.908;2022-09-09T06:04:16;93350.25;;;17.00;81.21
45793;BME280;31495;42.740;22.908;2022-09-09T06:05:15;93330.56;;;16.92;81.15
45793;BME280;31495;42.740;22.908;2022-09-09T06:06:18;93334.28;;;16.96;80.71
45793;BME280;31495;42.740;22.908;2022-09-09T06:07:20;93331.97;;;17.00;80.53